Time;durP1;ratioP1;P1;durP2;ratioP2;P2;SDS_P1;SDS_P2;PMS_P1;PMS_P2;Temp;Humidity;BMP_temperature;BMP_pressure;BME280_temperature;BME280_humidity;BME280_pressure;Samples;Min_cycle;Max_cycle;Signal;HPM_P1;HPM_P2
2021/06/26 00:00:47;;;;;;;2.42;2.13;;;;;;;21.45;52.49;101926.06;4848121;29;20040;-92
2021/06/26 00:03:13;;;;;;;2.80;2.42;;;;;;;21.45;52.19;101931.28;4847560;29;20029;-92
2021/06/26 00:05:38;;;;;;;3.13;2.30;;;;;;;21.44;52.54;101929.56;4847542;29;20056;-93
2021/06/26 00:08:04;;;;;;;2.72;2.10;;;;;;;21.45;52.46;101928.69;4863099;29;20034;-92
2021/06/26 00:10:29;;;;;;;2.35;2.15;;;;;;;21.48;52.06;101931.28;4848613;29;20089;-93
2021/06/26 00:12:55;;;;;;;2.60;2.17;;;;;;;21.45;52.30;101926.94;4863514;29;20033;-94
2021/06/26 00:15:20;;;;;;;2.60;2.25;;;;;;;21.44;52.24;101925.19;4863766;29;20098;-92
2021/06/26 00:17:45;;;;;;;2.90;2.60;;;;;;;21.44;52.29;101919.09;4862920;29;20064;-93
2021/06/26 00:20:12;;;;;;;2.67;2.30;;;;;;;21.44;52.36;101925.19;4862634;29;20043;-93
2021/06/26 00:22:37;;;;;;;4.22;2.67;;;;;;;21.42;52.52;101915.63;4864511;29;20105;-93
2021/06/26 00:25:03;;;;;;;3.10;2.80;;;;;;;21.41;52.32;101920.00;4862726;29;20548;-92
2021/06/26 00:27:31;;;;;;;4.45;3.03;;;;;;;21.39;52.45;101920.88;4862638;29;20465;-93
2021/06/26 00:29:57;;;;;;;3.92;2.85;;;;;;;21.41;52.46;101926.97;4848862;29;20041;-92
2021/06/26 00:32:22;;;;;;;4.20;2.65;;;;;;;21.41;52.49;101921.72;4868993;29;20030;-93
2021/06/26 00:34:48;;;;;;;3.72;2.95;;;;;;;21.40;52.90;101917.34;4863727;29;20037;-92
2021/06/26 00:37:13;;;;;;;4.05;2.70;;;;;;;21.40;52.64;101917.34;4847388;29;20079;-91
2021/06/26 00:39:38;;;;;;;3.90;3.13;;;;;;;21.39;52.64;101921.72;4847183;29;20040;-91
2021/06/26 00:42:04;;;;;;;3.08;2.78;;;;;;;21.40;52.75;101923.44;4862694;29;20174;-93
2021/06/26 00:44:29;;;;;;;3.80;2.67;;;;;;;21.42;52.62;101921.72;4862102;29;20037;-92
2021/06/26 00:46:55;;;;;;;3.10;2.80;;;;;;;21.40;52.38;101922.59;4846953;29;20048;-92
2021/06/26 00:49:20;;;;;;;3.15;2.72;;;;;;;21.39;52.79;101926.97;4862748;29;20034;-91
2021/06/26 00:51:46;;;;;;;3.63;2.97;;;;;;;21.40;52.33;101926.06;4831952;29;20092;-91
2021/06/26 00:54:12;;;;;;;2.70;2.50;;;;;;;21.42;52.42;101929.56;4848049;29;20034;-91
2021/06/26 00:56:37;;;;;;;3.80;2.90;;;;;;;21.39;52.47;101923.47;4831499;29;20041;-91
2021/06/26 00:59:03;;;;;;;3.13;2.70;;;;;;;21.39;52.62;101923.47;4862524;29;20081;-92
2021/06/26 01:01:30;;;;;;;3.33;2.83;;;;;;;21.39;52.71;101919.09;4863823;29;20485;-91
2021/06/26 01:03:55;;;;;;;4.03;3.10;;;;;;;21.40;52.42;101925.19;4863469;29;20036;-92
2021/06/26 01:06:21;;;;;;;3.10;2.80;;;;;;;21.41;52.49;101921.72;4862553;29;20564;-93
2021/06/26 01:08:46;;;;;;;2.90;2.60;;;;;;;21.39;52.56;101923.47;4846671;29;20115;-91
2021/06/26 01:11:12;;;;;;;4.22;2.75;;;;;;;21.39;52.52;101933.97;4861414;29;20036;-91
2021/06/26 01:13:38;;;;;;;3.60;2.72;;;;;;;21.39;52.56;101928.72;4862627;29;20040;-92
2021/06/26 01:16:03;;;;;;;3.30;3.00;;;;;;;21.40;52.55;101928.69;4864477;29;20049;-91
2021/06/26 01:18:29;;;;;;;3.55;3.22;;;;;;;21.40;52.41;101936.53;4873441;29;20068;-93
2021/06/26 01:20:54;;;;;;;4.00;3.60;;;;;;;21.42;52.35;101939.19;4863416;29;20053;-93
2021/06/26 01:23:20;;;;;;;4.18;3.60;;;;;;;21.42;52.52;101941.81;4866835;29;20477;-93
2021/06/26 01:25:46;;;;;;;3.53;3.00;;;;;;;21.40;52.42;101939.16;4849686;29;20120;-93
2021/06/26 01:28:13;;;;;;;3.60;2.92;;;;;;;21.40;52.62;101941.78;4864739;29;20055;-93
2021/06/26 01:30:39;;;;;;;4.43;3.13;;;;;;;21.42;52.62;101949.66;4864666;29;20057;-93
2021/06/26 01:33:05;;;;;;;3.30;3.00;;;;;;;21.43;52.22;101946.19;4864161;29;20078;-93
2021/06/26 01:35:31;;;;;;;4.88;3.03;;;;;;;21.42;52.53;101947.03;4865318;29;20037;-93
2021/06/26 01:37:57;;;;;;;3.95;3.40;;;;;;;21.41;52.35;101948.81;4850204;29;20097;-93
2021/06/26 01:40:26;;;;;;;5.28;3.30;;;;;;;21.41;52.48;101948.81;4863445;29;20055;-93
2021/06/26 01:42:52;;;;;;;3.45;3.15;;;;;;;21.41;52.62;101950.53;4864910;29;20060;-93
2021/06/26 01:45:20;;;;;;;3.53;2.70;;;;;;;21.41;52.67;101950.53;4865337;29;20045;-93
2021/06/26 01:47:50;;;;;;;3.60;2.83;;;;;;;21.41;52.57;101958.38;4865605;29;20060;-95
2021/06/26 01:50:17;;;;;;;3.67;3.00;;;;;;;21.39;52.40;101949.66;4866431;29;20050;-93
2021/06/26 01:52:44;;;;;;;3.45;3.10;;;;;;;21.42;52.52;101966.22;4865778;29;20047;-93
2021/06/26 01:55:11;;;;;;;3.30;3.00;;;;;;;21.40;52.62;101960.09;4865615;29;20082;-92
2021/06/26 01:57:37;;;;;;;4.07;3.15;;;;;;;21.40;52.50;101961.88;4866175;29;20165;-94
2021/06/26 02:00:04;;;;;;;3.42;3.13;;;;;;;21.41;52.38;101961.00;4851875;29;20068;-93
2021/06/26 02:02:29;;;;;;;4.47;2.97;;;;;;;21.39;52.56;101963.63;4868675;29;20026;-93
2021/06/26 02:04:55;;;;;;;3.72;3.00;;;;;;;21.39;52.26;101962.75;4840872;29;20029;-94
2021/06/26 02:07:20;;;;;;;3.67;3.10;;;;;;;21.39;52.41;101965.38;4855501;29;20033;-93
2021/06/26 02:09:45;;;;;;;3.67;2.88;;;;;;;21.36;52.56;101961.91;4868930;29;20150;-94
2021/06/26 02:12:11;;;;;;;3.45;2.95;;;;;;;21.36;52.39;101959.28;4838534;29;20034;-93
2021/06/26 02:14:37;;;;;;;3.80;3.40;;;;;;;21.36;52.64;101961.00;4840155;29;20133;-94
2021/06/26 02:17:02;;;;;;;3.88;3.38;;;;;;;21.37;52.44;101968.84;4852928;29;20033;-94
2021/06/26 02:19:27;;;;;;;3.72;2.85;;;;;;;21.38;52.36;101964.47;4854866;29;20026;-92
2021/06/26 02:21:53;;;;;;;3.53;2.80;;;;;;;21.39;52.43;101965.38;4872104;29;20037;-93
2021/06/26 02:24:18;;;;;;;3.35;2.90;;;;;;;21.38;52.45;101964.47;4844883;29;20038;-92
2021/06/26 02:26:44;;;;;;;4.00;3.60;;;;;;;21.38;52.75;101961.88;4848702;29;20037;-92
2021/06/26 02:29:09;;;;;;;3.20;2.90;;;;;;;21.36;52.67;101966.25;4864126;29;20034;-93
2021/06/26 02:31:35;;;;;;;3.17;2.88;;;;;;;21.36;52.71;101964.53;4881071;29;20043;-93
2021/06/26 02:34:00;;;;;;;3.42;2.85;;;;;;;21.36;52.64;101961.00;4881784;29;20053;-93
2021/06/26 02:36:25;;;;;;;3.10;2.80;;;;;;;21.36;52.58;101964.53;4864152;29;20040;-91
2021/06/26 02:38:51;;;;;;;4.47;2.97;;;;;;;21.37;52.60;101975.84;4865594;29;20038;-93
2021/06/26 02:41:20;;;;;;;3.22;2.83;;;;;;;21.36;52.58;101974.09;4848779;29;20041;-94
2021/06/26 02:43:46;;;;;;;3.40;3.10;;;;;;;21.36;52.36;101971.47;4850232;29;20070;-94
2021/06/26 02:46:11;;;;;;;3.50;3.20;;;;;;;21.39;52.27;101975.84;4879996;29;20033;-93
2021/06/26 02:48:37;;;;;;;3.70;2.80;;;;;;;21.37;52.60;101973.22;4850363;29;20033;-94
2021/06/26 02:51:02;;;;;;;3.45;2.85;;;;;;;21.37;52.58;101976.72;4865691;29;20045;-92
2021/06/26 02:53:27;;;;;;;2.95;2.65;;;;;;;21.36;52.67;101974.09;4881178;29;20038;-92
2021/06/26 02:55:55;;;;;;;3.22;2.83;;;;;;;21.34;52.54;101976.75;4881049;29;20062;-93
2021/06/26 02:58:22;;;;;;;2.90;2.50;;;;;;;21.34;52.62;101974.13;4865255;29;20041;-93
2021/06/26 03:00:47;;;;;;;3.20;2.90;;;;;;;21.36;52.52;101972.38;4865596;29;20025;-93
2021/06/26 03:03:13;;;;;;;2.85;2.58;;;;;;;21.35;52.53;101970.63;4881652;29;20105;-94
2021/06/26 03:05:38;;;;;;;2.90;2.60;;;;;;;21.34;52.82;101971.50;4879759;29;20112;-91
2021/06/26 03:08:04;;;;;;;5.40;2.80;;;;;;;21.36;52.50;101977.59;4877088;29;20116;-93
2021/06/26 03:10:30;;;;;;;3.70;2.72;;;;;;;21.36;52.50;101974.09;4879001;29;20065;-93
2021/06/26 03:12:55;;;;;;;3.47;2.55;;;;;;;21.35;52.49;101975.00;4879370;29;20025;-93
2021/06/26 03:15:20;;;;;;;2.75;2.50;;;;;;;21.37;52.52;101973.22;4848290;29;20033;-93
2021/06/26 03:17:46;;;;;;;3.25;2.83;;;;;;;21.36;52.51;101974.09;4880615;29;20037;-93
2021/06/26 03:20:11;;;;;;;3.20;2.60;;;;;;;21.34;52.61;101976.75;4880160;29;20042;-92
2021/06/26 03:22:38;;;;;;;3.13;2.63;;;;;;;21.36;52.43;101974.09;4862950;29;20033;-94
2021/06/26 03:25:09;;;;;;;3.22;2.92;;;;;;;21.33;52.52;101971.50;4878682;29;20037;-93
2021/06/26 03:27:36;;;;;;;3.10;2.80;;;;;;;21.35;52.59;101967.13;4879869;29;20037;-93
2021/06/26 03:30:05;;;;;;;4.38;2.85;;;;;;;21.35;52.45;101972.38;4876976;29;20101;-93
2021/06/26 03:32:31;;;;;;;3.35;3.03;;;;;;;21.35;52.53;101973.22;4875538;29;20029;-93
2021/06/26 03:34:59;;;;;;;3.58;2.83;;;;;;;21.35;52.73;101972.38;4859380;29;20040;-94
2021/06/26 03:37:25;;;;;;;3.33;3.00;;;;;;;21.34;52.45;101968.91;4858137;29;20037;-94
2021/06/26 03:39:50;;;;;;;4.35;3.33;;;;;;;21.35;52.76;101978.47;4861504;29;20066;-92
2021/06/26 03:42:16;;;;;;;3.13;2.83;;;;;;;21.32;52.85;101970.66;4867020;29;20063;-93
2021/06/26 03:44:41;;;;;;;5.03;2.90;;;;;;;21.34;52.60;101974.13;4868468;29;20017;-92
2021/06/26 03:47:07;;;;;;;3.38;3.03;;;;;;;21.33;52.67;101979.38;4864923;29;20053;-91
2021/06/26 03:49:36;;;;;;;3.55;2.83;;;;;;;21.33;52.68;101980.22;4863108;29;20033;-91
2021/06/26 03:52:02;;;;;;;4.50;3.80;;;;;;;21.34;52.59;101984.59;4878202;29;20029;-93
2021/06/26 03:54:27;;;;;;;4.35;3.13;;;;;;;21.31;52.67;101976.75;4880967;29;20033;-93
2021/06/26 03:56:53;;;;;;;4.10;3.65;;;;;;;21.32;52.80;101977.66;4881251;29;20033;-92
2021/06/26 03:59:18;;;;;;;4.03;2.88;;;;;;;21.32;52.66;101980.25;4865799;29;20167;-92
2021/06/26 04:01:43;;;;;;;4.53;3.10;;;;;;;21.35;52.57;101980.22;4865354;29;20054;-92
2021/06/26 04:04:09;;;;;;;3.58;3.13;;;;;;;21.32;52.62;101978.50;4881517;29;20037;-93
2021/06/26 04:06:34;;;;;;;3.13;2.83;;;;;;;21.32;52.46;101983.75;4881306;29;20093;-92
2021/06/26 04:08:59;;;;;;;3.92;3.05;;;;;;;21.35;52.67;101988.09;4864060;29;20033;-93
2021/06/26 04:11:25;;;;;;;3.55;3.25;;;;;;;21.35;52.58;101980.22;4880328;29;20034;-92
2021/06/26 04:13:50;;;;;;;3.05;2.75;;;;;;;21.34;52.61;101979.38;4880109;29;20561;-93
2021/06/26 04:16:16;;;;;;;4.88;2.70;;;;;;;21.36;52.45;101981.94;4880461;29;20037;-94
2021/06/26 04:18:41;;;;;;;3.10;2.72;;;;;;;21.36;52.14;101981.94;4881555;29;20029;-91
2021/06/26 04:21:06;;;;;;;2.97;2.65;;;;;;;21.36;52.46;101981.94;4881081;29;20029;-93
2021/06/26 04:23:32;;;;;;;5.28;2.80;;;;;;;21.37;52.48;101978.47;4865009;29;20029;-93
2021/06/26 04:25:57;;;;;;;4.30;2.83;;;;;;;21.35;52.62;101981.09;4881840;29;20040;-93
2021/06/26 04:28:22;;;;;;;4.15;3.05;;;;;;;21.36;52.45;101985.47;4880543;29;20038;-93
2021/06/26 04:30:48;;;;;;;3.75;2.88;;;;;;;21.35;52.53;101985.47;4881215;29;20021;-91
2021/06/26 04:33:13;;;;;;;4.95;3.20;;;;;;;21.35;52.49;101994.19;4849093;29;20033;-92
2021/06/26 04:35:39;;;;;;;4.15;2.78;;;;;;;21.36;52.67;101987.19;4861904;29;20052;-94
2021/06/26 04:38:04;;;;;;;3.17;2.88;;;;;;;21.35;52.61;101985.47;4879919;29;20097;-92
2021/06/26 04:40:30;;;;;;;3.65;3.13;;;;;;;21.36;52.37;101985.47;4880629;29;20520;-92
2021/06/26 04:42:55;;;;;;;3.63;2.97;;;;;;;21.39;52.63;101988.94;4879760;29;20036;-94
2021/06/26 04:45:21;;;;;;;3.90;3.05;;;;;;;21.34;52.42;101979.38;4862117;29;20037;-92
2021/06/26 04:47:46;;;;;;;3.55;3.22;;;;;;;21.33;52.76;101980.22;4877519;29;20044;-93
2021/06/26 04:50:13;;;;;;;4.22;3.25;;;;;;;21.35;52.60;101985.47;4847791;29;20054;-93
2021/06/26 04:52:40;;;;;;;3.97;3.28;;;;;;;21.38;52.70;101988.06;4879298;29;20070;-91
2021/06/26 04:55:06;;;;;;;5.00;3.15;;;;;;;21.38;52.59;101988.06;4877781;29;20041;-93
2021/06/26 04:57:32;;;;;;;5.53;3.47;;;;;;;21.40;52.41;101986.28;4878154;29;20033;-92
2021/06/26 04:59:57;;;;;;;3.88;3.20;;;;;;;21.40;52.41;101988.03;4878019;29;20116;-94
2021/06/26 05:02:23;;;;;;;4.97;3.38;;;;;;;21.41;52.38;101988.06;4847952;29;20049;-92
2021/06/26 05:04:48;;;;;;;3.88;2.92;;;;;;;21.42;52.52;101981.09;4863494;29;20114;-93
2021/06/26 05:07:14;;;;;;;5.57;3.70;;;;;;;21.37;52.60;101992.44;4878256;29;20036;-91
2021/06/26 05:09:39;;;;;;;5.38;3.38;;;;;;;21.39;52.50;101984.56;4862055;29;20029;-91
2021/06/26 05:12:06;;;;;;;3.75;3.00;;;;;;;21.41;52.28;101984.56;4877669;29;20030;-92
2021/06/26 05:14:31;;;;;;;4.57;3.17;;;;;;;21.40;52.33;101986.28;4878011;29;20033;-92
2021/06/26 05:16:56;;;;;;;4.57;3.33;;;;;;;21.40;52.44;101982.81;4863786;29;20037;-92
2021/06/26 05:19:22;;;;;;;5.13;3.25;;;;;;;21.43;52.33;101986.31;4848482;29;20028;-92
2021/06/26 05:21:47;;;;;;;5.00;3.67;;;;;;;21.41;52.38;101990.69;4879725;29;20097;-92
2021/06/26 05:24:13;;;;;;;4.65;3.75;;;;;;;21.39;52.27;101992.44;4879905;29;20036;-94
2021/06/26 05:26:38;;;;;;;5.07;3.40;;;;;;;21.41;52.50;101995.03;4880004;29;20037;-91
2021/06/26 05:29:04;;;;;;;5.55;3.47;;;;;;;21.41;52.38;101995.03;4880131;29;20107;-92
2021/06/26 05:31:29;;;;;;;4.95;3.00;;;;;;;21.39;52.51;101989.81;4877296;29;20037;-92
2021/06/26 05:33:55;;;;;;;4.35;3.03;;;;;;;21.46;52.28;101995.91;4870936;29;20029;-92
2021/06/26 05:36:20;;;;;;;4.20;2.22;;;;;;;21.54;52.10;101997.56;4855911;29;20040;-92
2021/06/26 05:38:46;;;;;;;4.35;2.47;;;;;;;21.57;51.83;101994.91;4871270;29;20040;-93
2021/06/26 05:41:11;;;;;;;7.05;3.28;;;;;;;21.60;51.73;101990.53;4872372;29;20037;-93
2021/06/26 05:43:36;;;;;;;6.82;3.20;;;;;;;21.63;51.89;101991.41;4874803;29;20033;-93
2021/06/26 05:46:02;;;;;;;4.75;3.08;;;;;;;21.61;52.04;101997.53;4859832;29;20029;-92
2021/06/26 05:48:28;;;;;;;7.13;3.40;;;;;;;21.62;51.63;101996.63;4861405;29;20389;-93
2021/06/26 05:50:53;;;;;;;7.20;3.38;;;;;;;21.61;51.80;101998.41;4845245;29;20058;-93
2021/06/26 05:53:19;;;;;;;9.15;3.83;;;;;;;21.63;51.74;101994.03;4874020;29;20046;-93
2021/06/26 05:55:57;;;;;;;8.07;4.93;;;;;;;21.63;51.95;101999.25;4857301;29;20040;-92
2021/06/26 05:58:24;;;;;;;6.88;4.05;;;;;;;21.67;51.91;102007.97;4874569;29;20030;-92
2021/06/26 06:00:50;;;;;;;10.88;3.90;;;;;;;21.66;52.24;102004.47;4861697;29;20033;-93
2021/06/26 06:03:15;;;;;;;6.72;4.40;;;;;;;21.68;51.96;102010.56;4864524;29;20449;-92
2021/06/26 06:05:41;;;;;;;7.65;4.00;;;;;;;21.68;52.21;102012.31;4856491;29;20366;-92
2021/06/26 06:08:06;;;;;;;6.68;4.60;;;;;;;21.66;51.90;102009.69;4869048;29;20066;-92
2021/06/26 06:10:32;;;;;;;6.45;4.15;;;;;;;21.69;51.93;102021.94;4880130;29;20029;-92
2021/06/26 06:12:57;;;;;;;6.90;4.70;;;;;;;21.66;52.06;102009.69;4859225;29;20505;-93
2021/06/26 06:15:22;;;;;;;5.32;4.28;;;;;;;21.68;52.29;102012.31;4874147;29;20461;-92
2021/06/26 06:17:48;;;;;;;6.57;4.57;;;;;;;21.71;51.86;102020.13;4862080;29;20057;-92
2021/06/26 06:20:13;;;;;;;6.47;4.47;;;;;;;21.70;52.17;102015.78;4880515;29;20037;-92
2021/06/26 06:22:39;;;;;;;10.07;4.88;;;;;;;21.70;52.27;102023.66;4874462;29;20030;-93
2021/06/26 06:25:09;;;;;;;7.57;5.15;;;;;;;21.68;52.25;102018.41;4874572;29;20066;-92
2021/06/26 06:27:36;;;;;;;9.57;4.63;;;;;;;21.69;52.26;102025.41;4879677;29;20029;-93
2021/06/26 06:30:03;;;;;;;8.95;5.18;;;;;;;21.72;52.03;102029.75;4862622;29;20090;-92
2021/06/26 06:32:29;;;;;;;10.63;5.00;;;;;;;21.72;52.13;102027.13;4876714;29;20053;-93
2021/06/26 06:38:35;;;;;;;9.43;5.00;;;;;;;21.72;51.70;102021.88;4856539;29;20554;-93
2021/06/26 06:41:01;;;;;;;10.77;4.75;;;;;;;21.74;51.84;102025.38;4849589;29;20029;-91
2021/06/26 06:43:29;;;;;;;8.13;5.40;;;;;;;21.75;51.92;102024.47;4870308;29;20046;-91
2021/06/26 06:49:17;;;;;;;7.85;4.65;;;;;;;21.75;51.97;102025.38;4861602;29;20095;-93
2021/06/26 06:51:43;;;;;;;5.97;4.50;;;;;;;21.75;51.97;102020.13;4842998;29;20054;-94
2021/06/26 06:54:09;;;;;;;9.02;5.10;;;;;;;21.78;51.75;102027.94;4842469;29;20033;-92
2021/06/26 06:56:35;;;;;;;9.75;4.70;;;;;;;21.78;51.69;102025.31;4827734;29;20044;-94
2021/06/26 06:59:13;;;;;;;7.85;4.65;;;;;;;21.81;51.79;102027.03;4845588;29;20046;-92
2021/06/26 07:01:48;;;;;;;;;;;;;;;;;;;;;
2021/06/26 07:04:14;;;;;;;7.30;4.57;;;;;;;21.82;51.92;102020.03;4866811;29;20073;-92
2021/06/26 07:09:15;;;;;;;6.75;4.38;;;;;;;21.88;51.64;102027.88;4759944;27;20062;-94
2021/06/26 07:11:40;;;;;;;7.35;4.43;;;;;;;21.88;51.77;102027.88;4879596;29;20113;-93
2021/06/26 07:14:06;;;;;;;7.35;4.35;;;;;;;21.88;51.64;102030.47;4863244;29;20056;-91
2021/06/26 07:16:32;;;;;;;6.47;4.10;;;;;;;21.87;51.71;102032.25;4865200;29;20033;-93
2021/06/26 07:18:57;;;;;;;6.88;4.53;;;;;;;21.91;51.75;102035.72;4900637;23;20350;-92
2021/06/26 07:21:23;;;;;;;5.95;4.40;;;;;;;21.97;51.74;102022.53;4880039;29;20386;-92
2021/06/26 07:23:48;;;;;;;6.90;4.32;;;;;;;22.07;51.45;102031.19;4879563;29;20032;-91
2021/06/26 07:26:14;;;;;;;5.22;3.90;;;;;;;22.11;51.31;102031.16;4880295;29;20105;-92
2021/06/26 07:28:47;;;;;;;6.60;4.43;;;;;;;22.16;51.16;102026.72;4881951;29;20573;-92
2021/06/26 07:34:39;;;;;;;14.65;12.55;;;;;;;22.63;51.37;102021.03;4878447;29;20070;-93
2021/06/26 07:37:05;;;;;;;17.25;14.35;;;;;;;22.48;52.10;102020.31;4851393;29;20061;-93
2021/06/26 07:39:31;;;;;;;18.77;16.77;;;;;;;22.26;53.26;102032.78;4881532;29;20033;-93
2021/06/26 07:45:38;;;;;;;25.55;15.57;;;;;;;22.39;53.13;102023.03;4871733;29;20044;-93
2021/06/26 07:48:07;;;;;;;18.40;15.60;;;;;;;22.35;53.04;102023.94;4856301;29;20046;-93
2021/06/26 07:50:34;;;;;;;19.60;17.48;;;;;;;22.47;53.20;102012.44;4873222;29;20047;-94
2021/06/26 07:59:44;;;;;;;18.63;16.33;;;;;;;22.36;53.90;102021.31;4861116;29;20454;-95
2021/06/26 08:05:21;;;;;;;22.20;16.25;;;;;;;22.36;54.23;102016.06;4863948;29;20070;-94
2021/06/26 08:07:46;;;;;;;17.45;15.32;;;;;;;22.32;54.13;102006.50;4870112;29;20097;-93
2021/06/26 08:13:37;;;;;;;17.45;13.85;;;;;;;22.11;55.06;102023.28;4880201;29;20044;-94
2021/06/26 08:19:35;;;;;;;16.17;14.50;;;;;;;22.04;54.99;102029.47;4878463;29;20101;-91
2021/06/26 08:22:00;;;;;;;16.10;14.35;;;;;;;21.99;55.16;102028.63;4879617;29;20070;-92
2021/06/26 08:24:26;;;;;;;16.25;13.35;;;;;;;21.92;54.87;102029.56;4882228;29;20033;-92
2021/06/26 08:26:51;;;;;;;17.58;13.82;;;;;;;21.85;55.25;102026.13;4853297;29;20105;-90
2021/06/26 08:29:16;;;;;;;16.52;13.23;;;;;;;21.91;55.15;102033.97;4883383;29;20042;-90
2021/06/26 08:31:42;;;;;;;16.73;13.50;;;;;;;21.92;55.28;102029.56;4882119;29;20029;-90
2021/06/26 08:34:07;;;;;;;14.95;13.45;;;;;;;21.88;55.27;102023.47;4879506;29;20040;-90
2021/06/26 08:36:35;;;;;;;14.45;12.45;;;;;;;21.92;54.90;102026.97;4893548;24;20061;-90
2021/06/26 08:42:56;;;;;;;15.43;12.95;;;;;;;21.85;55.48;102026.13;4877000;29;20063;-90
2021/06/26 08:45:37;;;;;;;15.65;13.90;;;;;;;21.80;55.42;102027.94;4860543;29;20533;-90
2021/06/26 08:48:03;;;;;;;14.73;13.07;;;;;;;21.77;55.62;102023.59;4847143;29;20086;-90
2021/06/26 08:50:29;;;;;;;15.70;14.02;;;;;;;21.77;55.83;102027.94;4845334;29;20014;-92
2021/06/26 08:52:55;;;;;;;16.83;13.65;;;;;;;21.92;55.41;102029.56;4846787;29;20096;-92
2021/06/26 08:55:21;;;;;;;15.73;14.05;;;;;;;22.06;54.75;102025.09;4911664;24;20126;-93
2021/06/26 08:57:47;;;;;;;18.58;15.13;;;;;;;22.03;54.64;102017.22;4828685;29;20083;-90
2021/06/26 09:00:20;;;;;;;19.42;13.13;;;;;;;22.21;54.28;102020.56;4844390;29;20041;-91
2021/06/26 09:02:48;;;;;;;;;;;;;;;22.42;54.10;102019.50;4844928;29;20039;-89
2021/06/26 09:05:30;;;;;;;14.43;12.90;;;;;;;22.13;55.60;102020.66;4856592;29;19917;-94
2021/06/26 09:08:21;;;;;;;18.92;14.50;;;;;;;21.71;58.76;102031.50;4840032;29;20056;-92
2021/06/26 09:14:20;;;;;;;17.65;14.52;;;;;;;21.41;60.29;102027.34;4847161;29;20059;-88
2021/06/26 09:16:52;;;;;;;16.77;15.00;;;;;;;21.29;59.47;102025.63;4846638;29;20069;-93
2021/06/26 09:19:19;;;;;;;17.48;14.52;;;;;;;21.36;58.96;102034.31;4847465;29;20466;-89
2021/06/26 09:22:14;;;;;;;15.95;14.10;;;;;;;21.36;59.85;102036.94;4870636;24;20068;-89
2021/06/26 09:24:43;;;;;;;14.80;13.20;;;;;;;21.30;59.12;102026.53;4880194;29;20027;-91
2021/06/26 09:27:14;;;;;;;16.13;13.73;;;;;;;21.37;60.92;102026.47;4882444;29;20041;-91
2021/06/26 09:29:54;;;;;;;17.48;13.05;;;;;;;21.43;60.39;102022.97;4882000;29;20021;-92
2021/06/26 09:35:45;;;;;;;16.02;13.23;;;;;;;21.40;60.58;102030.81;4881419;29;20066;-92
2021/06/26 09:38:12;;;;;;;12.40;11.10;;;;;;;21.42;60.17;102028.22;4849429;29;20098;-92
2021/06/26 09:40:41;;;;;;;15.75;12.10;;;;;;;21.42;59.87;102030.84;4878534;29;20485;-94
2021/06/26 09:43:09;;;;;;;13.75;12.30;;;;;;;21.43;59.90;102022.13;4875256;29;20021;-94
2021/06/26 09:45:34;;;;;;;14.18;11.50;;;;;;;21.46;59.57;102033.44;4875921;29;20030;-92
2021/06/26 09:48:06;;;;;;;14.00;12.23;;;;;;;21.51;58.97;102030.78;4884806;24;20058;-94
2021/06/26 09:50:35;;;;;;;14.27;11.60;;;;;;;21.57;58.48;102031.59;4856887;29;20034;-94
2021/06/26 09:53:04;;;;;;;14.13;11.77;;;;;;;21.51;59.02;102026.44;4853276;29;20033;-94
2021/06/26 09:55:39;;;;;;;17.83;11.85;;;;;;;21.46;59.73;102022.94;4854642;29;20053;-96
2021/06/26 09:58:09;;;;;;;13.43;10.75;;;;;;;21.57;61.00;102038.59;4850879;29;20082;-93
2021/06/26 10:00:36;;;;;;;13.35;11.13;;;;;;;21.57;60.85;102026.34;4849581;29;20030;-93
2021/06/26 10:03:03;;;;;;;13.38;10.90;;;;;;;21.63;60.85;102030.69;4849071;29;20091;-94
2021/06/26 10:05:31;;;;;;;13.40;11.98;;;;;;;21.62;60.66;102034.16;4856502;29;20033;-95
2021/06/26 10:07:59;;;;;;;15.00;11.07;;;;;;;21.71;61.11;102030.63;4860420;29;20049;-92
2021/06/26 10:10:24;;;;;;;12.32;11.02;;;;;;;21.76;61.23;102021.84;4843480;29;20021;-93
2021/06/26 10:12:51;;;;;;;12.35;10.98;;;;;;;21.78;61.70;102027.09;4856107;29;20066;-94
2021/06/26 10:15:19;;;;;;;12.75;11.45;;;;;;;21.78;61.74;102021.84;4852899;29;20155;-94
2021/06/26 10:17:45;;;;;;;12.98;11.05;;;;;;;21.84;61.97;102016.56;4832232;29;20519;-94
2021/06/26 10:20:17;;;;;;;12.13;10.88;;;;;;;21.83;61.89;102020.03;4844400;29;20033;-94
2021/06/26 10:22:47;;;;;;;12.43;10.73;;;;;;;21.86;60.98;102020.03;4845828;29;20034;-93
2021/06/26 10:25:13;;;;;;;12.77;11.45;;;;;;;21.84;61.73;102021.81;4848483;29;20112;-95
2021/06/26 10:27:39;;;;;;;15.32;11.85;;;;;;;21.88;61.67;102020.84;4849401;29;20030;-93
2021/06/26 10:30:11;;;;;;;16.42;11.40;;;;;;;21.90;61.11;102021.72;4850050;29;20053;-95
2021/06/26 10:32:36;;;;;;;12.93;10.77;;;;;;;21.89;60.85;102025.25;4847953;29;20037;-94
2021/06/26 10:35:11;;;;;;;14.98;11.95;;;;;;;21.79;60.81;102026.19;4831871;29;20062;-92
2021/06/26 10:37:36;;;;;;;14.82;12.30;;;;;;;21.77;60.78;102018.38;4849904;29;20478;-95
2021/06/26 10:40:05;;;;;;;14.02;12.05;;;;;;;21.75;60.97;102028.00;4849958;29;20033;-93
2021/06/26 10:42:36;;;;;;;14.40;12.90;;;;;;;21.77;61.98;102026.22;4853296;29;20128;-93
2021/06/26 10:45:04;;;;;;;13.60;12.30;;;;;;;21.80;61.15;102022.69;4840126;29;20124;-92
2021/06/26 10:47:55;;;;;;;13.77;12.35;;;;;;;21.86;61.05;102024.38;4864727;29;20050;-95
2021/06/26 10:50:23;;;;;;;15.60;12.48;;;;;;;21.87;60.31;102018.28;4892725;29;20048;-93
2021/06/26 10:52:52;;;;;;;15.27;12.25;;;;;;;21.94;60.67;102019.94;4893603;29;20061;-94
2021/06/26 10:55:40;;;;;;;15.77;12.65;;;;;;;21.95;60.46;102017.31;4878533;29;20345;-96
2021/06/26 10:58:07;;;;;;;14.98;13.23;;;;;;;21.98;60.65;102022.53;4878268;29;20445;-95
2021/06/26 11:00:37;;;;;;;16.42;13.85;;;;;;;21.87;59.72;102024.38;4879029;29;20040;-94
2021/06/26 11:03:05;;;;;;;16.05;12.95;;;;;;;21.94;60.65;102020.81;4863909;29;20037;-94
2021/06/26 11:11:36;;;;;;;21.88;17.75;;;;;;;21.64;63.49;102021.94;4884125;29;20052;-93
2021/06/26 11:14:24;;;;;;;21.33;17.75;;;;;;;21.63;67.23;102021.97;4868748;29;20040;-94
2021/06/26 11:20:18;;;;;;;22.92;18.33;;;;;;;21.56;69.21;102013.28;4868053;29;20052;-93
2021/06/26 11:22:50;;;;;;;20.67;18.48;;;;;;;21.52;69.76;102016.81;4865479;29;20033;-93
2021/06/26 11:25:16;;;;;;;20.75;17.63;;;;;;;21.48;68.42;102020.31;4866980;29;20034;-93
2021/06/26 11:27:41;;;;;;;21.13;18.50;;;;;;;21.48;68.83;102021.19;4857439;23;20052;-93
2021/06/26 11:30:08;;;;;;;19.80;17.73;;;;;;;21.38;68.39;102019.47;4846582;29;20046;-93
2021/06/26 11:32:35;;;;;;;19.45;16.95;;;;;;;21.36;67.64;102018.59;4867946;29;20048;-92
2021/06/26 11:35:10;;;;;;;20.65;18.50;;;;;;;21.28;69.50;102021.28;4855373;29;20110;-93
2021/06/26 11:37:42;;;;;;;21.05;19.00;;;;;;;21.14;68.79;102010.03;4883455;29;20033;-92
2021/06/26 11:40:13;;;;;;;21.98;19.65;;;;;;;21.16;70.23;102013.50;4871586;29;20029;-94
2021/06/26 11:42:48;;;;;;;23.33;20.23;;;;;;;21.22;68.65;102018.72;4867723;29;20029;-92
2021/06/26 11:45:21;;;;;;;22.02;19.63;;;;;;;21.23;69.65;102012.63;4866178;29;20113;-94
2021/06/26 11:47:47;;;;;;;23.05;19.40;;;;;;;21.25;67.78;102021.31;4864500;29;20372;-93
2021/06/26 11:50:14;;;;;;;20.58;18.27;;;;;;;21.25;66.26;102013.47;4865637;29;20120;-92
2021/06/26 11:52:39;;;;;;;20.63;18.50;;;;;;;21.22;67.16;102015.22;4865259;29;20032;-93
2021/06/26 11:55:06;;;;;;;20.55;18.20;;;;;;;21.20;67.90;102012.63;4848233;29;20033;-93
2021/06/26 11:57:31;;;;;;;19.48;17.52;;;;;;;21.20;66.03;102009.13;4848038;29;20086;-94
2021/06/26 11:59:57;;;;;;;20.90;18.55;;;;;;;21.18;68.23;102011.75;4865237;29;20026;-92
2021/06/26 12:02:34;;;;;;;20.45;18.23;;;;;;;21.13;67.59;102008.31;4864689;29;20500;-93
2021/06/26 12:05:01;;;;;;;18.67;16.98;;;;;;;21.10;67.24;102019.66;4863786;29;20134;-92
2021/06/26 12:07:37;;;;;;;22.65;18.80;;;;;;;21.13;65.38;102021.38;4863774;29;20029;-91
2021/06/26 12:10:05;;;;;;;21.73;18.58;;;;;;;21.13;66.83;102017.03;4865846;29;20065;-94
2021/06/26 12:12:35;;;;;;;19.73;17.73;;;;;;;21.14;66.96;102013.53;4865178;29;20061;-94
2021/06/26 12:15:01;;;;;;;20.17;18.00;;;;;;;21.19;67.83;102007.38;4849258;29;20381;-94